aviador You're here:

LFRU Decoded Metar

MORLAIX in FRANCE
Report Time2017-12-16 16:30:00
UTC Time2017-12-16 16:49:10
Flight Rules vfr VFR
Wind300° at 06 kt
W.Decomp.*RWY 27: 5.1 kt HW 3.2 kt RCW
RWY 34: 4.7 kt HW 3.7 kt LCW
RWY 22: 0.8 kt HW 5.9 kt RCW
W.Rank300° ranks 13
Current wind is below 300° avg. (10.6)
Visibility9999 m
Phenomena:N/A
Clouds:Scattered 041 Hf
Overcast 100 Hf
Expected CloudBase > 2,000 ft AGL from Temp-Dew spread
Ceiling10,000 ft
Temp07°C (ISA -7)
Dew Point02°C (71% RH)
AAT3.2°C
QNH1025 hPa
Density Alt-922 ft
Elevation282 ft
Report Wrong Elevation
Raw Report
METAR LFRU 161630Z AUTO 30006KT 9999 SCT041 OVC100 07/02 Q1025=

Extra information for LFRU:More info

Metar Taf Metar & Taf Last 4 Metars F.Rules Stats Wind Profile Meteogram Temp Stats Airport Information Weather charts Add Link Nearby VenuesMetar ALERT Operation Metar Decoded Social comments